TAM3373 SBGO-SBGR
Flight info
| Callsign | TAM3373 |
|---|---|
| Flight time | 1h 29m |
| Altitude | 37000 |
| Route | ESBOD DCT ILPAV DCT ROBAG/N0457F360 UZ38 VUNOX |
| Aircraft | A321/M-SDE2FGHIM1RWXYZ/L |
Departure
| Time | 2026-05-01 12:56 |
|---|---|
| Airport | Santa Genoveva International Airport (SBGO) |
Arrival
| Time | 2026-05-01 14:26 |
|---|---|
| Airport | São Paulo/Guarulhos–Governor André Franco Montoro International Airport (SBGR) |
| Time | Latitude | Longitude | Altitude | Speed | Heading |
|---|---|---|---|---|---|
| 2026-05-01 12:26 | -16.62975 | -49.21532 | 2462 ft | 0 kts | 64° |
| 2026-05-01 12:43 | -16.62976 | -49.21533 | 2462 ft | 2 kts | 64° |
| 2026-05-01 12:43 | -16.62987 | -49.21556 | 2462 ft | 4 kts | 64° |
| 2026-05-01 12:43 | -16.62998 | -49.21577 | 2464 ft | 4 kts | 44° |
| 2026-05-01 12:43 | -16.63016 | -49.21587 | 2462 ft | 4 kts | 344° |
| 2026-05-01 12:44 | -16.63039 | -49.21574 | 2464 ft | 4 kts | 322° |
| 2026-05-01 12:44 | -16.63047 | -49.21567 | 2462 ft | 0 kts | 324° |
| 2026-05-01 12:47 | -16.63043 | -49.21571 | 2463 ft | 2 kts | 324° |
| 2026-05-01 12:47 | -16.63012 | -49.21590 | 2462 ft | 8 kts | 330° |
| 2026-05-01 12:47 | -16.62943 | -49.21626 | 2462 ft | 13 kts | 329° |
| 2026-05-01 12:48 | -16.62927 | -49.21718 | 2460 ft | 16 kts | 257° |
| 2026-05-01 12:48 | -16.62955 | -49.21840 | 2454 ft | 19 kts | 256° |
| 2026-05-01 12:48 | -16.62982 | -49.21970 | 2444 ft | 15 kts | 258° |
| 2026-05-01 12:48 | -16.63054 | -49.22011 | 2447 ft | 16 kts | 139° |
| 2026-05-01 12:49 | -16.63113 | -49.21915 | 2449 ft | 16 kts | 120° |
| 2026-05-01 12:49 | -16.63171 | -49.21812 | 2452 ft | 16 kts | 120° |
| 2026-05-01 12:49 | -16.63226 | -49.21713 | 2451 ft | 15 kts | 121° |
| 2026-05-01 12:49 | -16.63279 | -49.21620 | 2455 ft | 14 kts | 120° |
| 2026-05-01 12:50 | -16.63329 | -49.21532 | 2462 ft | 13 kts | 121° |
| 2026-05-01 12:50 | -16.63372 | -49.21455 | 2459 ft | 13 kts | 120° |
| 2026-05-01 12:50 | -16.63425 | -49.21360 | 2460 ft | 18 kts | 120° |
| 2026-05-01 12:50 | -16.63491 | -49.21243 | 2461 ft | 18 kts | 120° |
| 2026-05-01 12:51 | -16.63556 | -49.21126 | 2462 ft | 19 kts | 120° |
| 2026-05-01 12:51 | -16.63604 | -49.21046 | 2466 ft | 10 kts | 137° |
| 2026-05-01 12:51 | -16.63664 | -49.21054 | 2462 ft | 0 kts | 209° |
| 2026-05-01 12:54 | -16.63665 | -49.21054 | 2466 ft | 1 kts | 208° |
| 2026-05-01 12:54 | -16.63687 | -49.21067 | 2463 ft | 6 kts | 208° |
| 2026-05-01 12:55 | -16.63729 | -49.21157 | 2463 ft | 7 kts | 300° |
| 2026-05-01 12:55 | -16.63691 | -49.21226 | 2462 ft | 23 kts | 300° |
| 2026-05-01 12:55 | -16.63477 | -49.21610 | 2455 ft | 98 kts | 300° |
| 2026-05-01 12:56 | -16.63018 | -49.22423 | 2461 ft | 158 kts | 299° |
| 2026-05-01 12:56 | -16.62461 | -49.23424 | 3164 ft | 156 kts | 300° |
| 2026-05-01 12:56 | -16.61905 | -49.24414 | 3801 ft | 164 kts | 303° |
| 2026-05-01 12:56 | -16.61289 | -49.25499 | 4166 ft | 184 kts | 304° |
| 2026-05-01 12:57 | -16.60591 | -49.26728 | 4371 ft | 206 kts | 304° |
| 2026-05-01 12:57 | -16.58967 | -49.29590 | 4833 ft | 252 kts | 305° |
| 2026-05-01 12:57 | -16.58028 | -49.31245 | 5101 ft | 277 kts | 304° |
| 2026-05-01 12:58 | -16.57016 | -49.33041 | 5664 ft | 288 kts | 304° |
| 2026-05-01 12:58 | -16.56253 | -49.34992 | 6422 ft | 299 kts | 280° |
| 2026-05-01 12:58 | -16.56498 | -49.37145 | 7140 ft | 306 kts | 246° |
| 2026-05-01 12:59 | -16.59697 | -49.39741 | 8547 ft | 301 kts | 182° |
| 2026-05-01 12:59 | -16.61732 | -49.39467 | 9222 ft | 295 kts | 155° |
| 2026-05-01 12:59 | -16.65536 | -49.37744 | 10483 ft | 299 kts | 152° |
| 2026-05-01 13:00 | -16.69369 | -49.35975 | 11668 ft | 304 kts | 153° |
| 2026-05-01 13:00 | -16.71387 | -49.35259 | 12276 ft | 309 kts | 162° |
| 2026-05-01 13:01 | -16.75656 | -49.34417 | 13472 ft | 315 kts | 168° |
| 2026-05-01 13:01 | -16.77837 | -49.34087 | 14055 ft | 318 kts | 168° |
| 2026-05-01 13:01 | -16.82155 | -49.33061 | 14926 ft | 325 kts | 153° |
| 2026-05-01 13:02 | -16.84252 | -49.32019 | 15046 ft | 342 kts | 151° |
| 2026-05-01 13:07 | -17.37980 | -49.06755 | 23332 ft | 439 kts | 167° |
| 2026-05-01 13:07 | -17.40997 | -49.06141 | 23700 ft | 442 kts | 167° |
| 2026-05-01 13:07 | -17.44021 | -49.05521 | 24000 ft | 445 kts | 167° |
| 2026-05-01 13:08 | -17.47065 | -49.04891 | 24307 ft | 446 kts | 167° |
| 2026-05-01 13:08 | -17.50117 | -49.04257 | 24617 ft | 449 kts | 167° |
| 2026-05-01 13:08 | -17.53182 | -49.03622 | 24919 ft | 451 kts | 167° |
| 2026-05-01 13:08 | -17.55268 | -49.03193 | 25122 ft | 452 kts | 167° |
| 2026-05-01 13:09 | -17.58364 | -49.02557 | 25424 ft | 454 kts | 167° |
| 2026-05-01 13:09 | -17.61472 | -49.01920 | 25725 ft | 456 kts | 167° |
| 2026-05-01 13:09 | -17.64599 | -49.01281 | 26034 ft | 458 kts | 168° |
| 2026-05-01 13:09 | -17.67733 | -49.00639 | 26338 ft | 460 kts | 167° |
| 2026-05-01 13:10 | -17.70818 | -48.99714 | 26638 ft | 461 kts | 158° |
| 2026-05-01 13:10 | -17.73706 | -48.98259 | 26915 ft | 462 kts | 148° |
| 2026-05-01 13:10 | -17.76325 | -48.96310 | 27207 ft | 462 kts | 138° |
| 2026-05-01 13:10 | -17.78672 | -48.94003 | 27484 ft | 464 kts | 135° |
| 2026-05-01 13:11 | -17.81002 | -48.91651 | 27764 ft | 466 kts | 135° |
| 2026-05-01 13:11 | -17.83339 | -48.89290 | 28050 ft | 468 kts | 135° |
| 2026-05-01 13:11 | -17.85731 | -48.86881 | 28330 ft | 470 kts | 135° |
| 2026-05-01 13:11 | -17.88102 | -48.84498 | 28603 ft | 473 kts | 135° |
| 2026-05-01 13:12 | -17.90482 | -48.82107 | 28873 ft | 475 kts | 135° |
| 2026-05-01 13:12 | -17.92872 | -48.79704 | 29156 ft | 477 kts | 135° |
| 2026-05-01 13:12 | -17.95277 | -48.77282 | 29453 ft | 479 kts | 136° |
| 2026-05-01 13:12 | -17.97686 | -48.74853 | 29720 ft | 481 kts | 136° |
| 2026-05-01 13:13 | -18.00100 | -48.72419 | 30111 ft | 481 kts | 136° |
| 2026-05-01 13:13 | -18.02506 | -48.69990 | 30473 ft | 480 kts | 136° |
| 2026-05-01 13:13 | -18.04872 | -48.67595 | 30805 ft | 479 kts | 136° |
| 2026-05-01 13:13 | -18.07303 | -48.65132 | 31152 ft | 478 kts | 136° |
| 2026-05-01 13:14 | -18.09698 | -48.62709 | 31485 ft | 477 kts | 136° |
| 2026-05-01 13:14 | -18.12092 | -48.60292 | 31812 ft | 477 kts | 136° |
| 2026-05-01 13:14 | -18.14483 | -48.57879 | 32144 ft | 476 kts | 136° |
| 2026-05-01 13:14 | -18.16874 | -48.55465 | 32492 ft | 476 kts | 136° |
| 2026-05-01 13:15 | -18.19251 | -48.53063 | 32831 ft | 475 kts | 136° |
| 2026-05-01 13:15 | -18.21630 | -48.50658 | 33180 ft | 474 kts | 136° |
| 2026-05-01 13:15 | -18.24009 | -48.48250 | 33524 ft | 474 kts | 136° |
| 2026-05-01 13:15 | -18.26380 | -48.45846 | 33876 ft | 473 kts | 137° |
| 2026-05-01 13:16 | -18.28746 | -48.43447 | 34199 ft | 472 kts | 137° |
| 2026-05-01 13:16 | -18.31108 | -48.41048 | 34494 ft | 472 kts | 137° |
| 2026-05-01 13:16 | -18.33471 | -48.38646 | 34780 ft | 472 kts | 137° |
| 2026-05-01 13:17 | -18.40550 | -48.31462 | 35650 ft | 470 kts | 137° |
| 2026-05-01 13:17 | -18.42931 | -48.29045 | 35961 ft | 470 kts | 137° |
| 2026-05-01 13:18 | -18.47627 | -48.24277 | 36538 ft | 469 kts | 137° |
| 2026-05-01 13:18 | -18.49970 | -48.21895 | 36817 ft | 468 kts | 137° |
| 2026-05-01 13:18 | -18.52319 | -48.19505 | 37061 ft | 468 kts | 137° |
| 2026-05-01 13:18 | -18.54661 | -48.17123 | 37152 ft | 469 kts | 137° |
| 2026-05-01 13:19 | -18.59357 | -48.12339 | 37174 ft | 470 kts | 137° |
| 2026-05-01 13:20 | -18.66396 | -48.05157 | 37189 ft | 469 kts | 137° |
| 2026-05-01 13:20 | -18.71082 | -48.00375 | 37193 ft | 469 kts | 137° |
| 2026-05-01 13:21 | -18.78167 | -47.93144 | 37188 ft | 470 kts | 137° |
| 2026-05-01 13:21 | -18.82865 | -47.88332 | 37180 ft | 471 kts | 137° |
| 2026-05-01 13:22 | -18.87571 | -47.83502 | 37169 ft | 472 kts | 137° |
| 2026-05-01 13:22 | -18.92281 | -47.78677 | 37177 ft | 472 kts | 137° |
| 2026-05-01 13:23 | -18.97024 | -47.73824 | 37181 ft | 472 kts | 137° |
| 2026-05-01 13:23 | -19.01738 | -47.69001 | 37182 ft | 472 kts | 137° |
| 2026-05-01 13:24 | -19.06449 | -47.64163 | 37183 ft | 472 kts | 137° |
| 2026-05-01 13:25 | -19.13507 | -47.56892 | 37188 ft | 472 kts | 137° |
| 2026-05-01 13:25 | -19.18210 | -47.52046 | 37191 ft | 472 kts | 137° |
| 2026-05-01 13:26 | -19.22917 | -47.47201 | 37194 ft | 472 kts | 137° |
| 2026-05-01 13:26 | -19.27623 | -47.42358 | 37196 ft | 472 kts | 137° |
| 2026-05-01 13:27 | -19.32320 | -47.37516 | 37195 ft | 472 kts | 137° |
| 2026-05-01 13:27 | -19.39400 | -47.30197 | 37201 ft | 472 kts | 137° |
| 2026-05-01 13:28 | -19.46437 | -47.22916 | 37232 ft | 471 kts | 137° |
| 2026-05-01 13:29 | -19.55819 | -47.13198 | 37271 ft | 472 kts | 137° |
| 2026-05-01 13:31 | -19.69922 | -46.98551 | 37273 ft | 472 kts | 137° |
| 2026-05-01 13:32 | -19.81676 | -46.86350 | 37234 ft | 473 kts | 137° |
| 2026-05-01 13:33 | -19.93412 | -46.74092 | 37216 ft | 474 kts | 137° |
| 2026-05-01 13:34 | -20.02852 | -46.64234 | 37222 ft | 474 kts | 137° |
| 2026-05-01 13:35 | -20.09899 | -46.56855 | 37220 ft | 474 kts | 137° |
| 2026-05-01 13:36 | -20.16944 | -46.49470 | 37219 ft | 474 kts | 137° |
| 2026-05-01 13:36 | -20.23197 | -46.42924 | 37214 ft | 473 kts | 137° |
| 2026-05-01 13:37 | -20.27888 | -46.38003 | 37217 ft | 473 kts | 137° |
| 2026-05-01 13:37 | -20.32570 | -46.33071 | 37211 ft | 474 kts | 137° |
| 2026-05-01 13:38 | -20.39598 | -46.25662 | 37210 ft | 474 kts | 137° |
| 2026-05-01 13:39 | -20.44289 | -46.20727 | 37208 ft | 474 kts | 137° |
| 2026-05-01 13:39 | -20.49018 | -46.15758 | 37211 ft | 474 kts | 137° |
| 2026-05-01 13:40 | -20.53709 | -46.10801 | 37209 ft | 474 kts | 137° |
| 2026-05-01 13:40 | -20.58385 | -46.05846 | 37208 ft | 474 kts | 137° |
| 2026-05-01 13:41 | -20.63074 | -46.00882 | 37206 ft | 474 kts | 137° |
| 2026-05-01 13:41 | -20.67761 | -45.95928 | 37209 ft | 474 kts | 137° |
| 2026-05-01 13:42 | -20.72855 | -45.91524 | 37207 ft | 468 kts | 153° |
| 2026-05-01 13:42 | -20.78774 | -45.88749 | 37208 ft | 464 kts | 162° |
| 2026-05-01 13:43 | -20.84877 | -45.86547 | 37206 ft | 460 kts | 172° |
| 2026-05-01 13:43 | -20.91190 | -45.86215 | 37193 ft | 452 kts | 190° |
| 2026-05-01 13:44 | -20.97303 | -45.87590 | 37206 ft | 449 kts | 196° |
| 2026-05-01 13:44 | -21.03390 | -45.89108 | 37198 ft | 449 kts | 196° |
| 2026-05-01 13:45 | -21.09489 | -45.90615 | 37204 ft | 450 kts | 196° |
| 2026-05-01 13:45 | -21.15629 | -45.92137 | 37212 ft | 450 kts | 196° |
| 2026-05-01 13:46 | -21.21738 | -45.93662 | 37213 ft | 450 kts | 196° |
| 2026-05-01 13:46 | -21.27835 | -45.95187 | 37216 ft | 450 kts | 197° |
| 2026-05-01 13:47 | -21.33938 | -45.96709 | 37206 ft | 450 kts | 197° |
| 2026-05-01 13:47 | -21.40049 | -45.98237 | 37212 ft | 450 kts | 197° |
| 2026-05-01 13:48 | -21.46155 | -45.99764 | 37097 ft | 451 kts | 197° |
| 2026-05-01 13:48 | -21.49211 | -46.00526 | 36843 ft | 451 kts | 197° |
| 2026-05-01 13:48 | -21.52264 | -46.01290 | 36601 ft | 451 kts | 197° |
| 2026-05-01 13:48 | -21.55322 | -46.02059 | 36358 ft | 452 kts | 197° |
| 2026-05-01 13:49 | -21.58389 | -46.02828 | 36121 ft | 452 kts | 197° |
| 2026-05-01 13:49 | -21.61454 | -46.03595 | 35881 ft | 453 kts | 197° |
| 2026-05-01 13:49 | -21.64568 | -46.04376 | 35645 ft | 455 kts | 197° |
| 2026-05-01 13:49 | -21.67652 | -46.05152 | 35413 ft | 456 kts | 197° |
| 2026-05-01 13:50 | -21.70735 | -46.05928 | 35180 ft | 456 kts | 197° |
| 2026-05-01 13:50 | -21.73841 | -46.06709 | 34950 ft | 457 kts | 197° |
| 2026-05-01 13:50 | -21.76947 | -46.07490 | 34411 ft | 461 kts | 196° |
| 2026-05-01 13:50 | -21.80088 | -46.08280 | 33494 ft | 467 kts | 196° |
| 2026-05-01 13:51 | -21.83264 | -46.09078 | 32613 ft | 471 kts | 196° |
| 2026-05-01 13:51 | -21.86471 | -46.09883 | 31716 ft | 476 kts | 196° |
| 2026-05-01 13:51 | -21.89714 | -46.10699 | 30785 ft | 480 kts | 195° |
| 2026-05-01 13:51 | -21.92981 | -46.11522 | 29755 ft | 485 kts | 195° |
| 2026-05-01 13:52 | -21.96246 | -46.12345 | 29249 ft | 477 kts | 195° |
| 2026-05-01 13:52 | -21.99466 | -46.13157 | 28601 ft | 474 kts | 195° |
| 2026-05-01 13:52 | -22.02653 | -46.13959 | 27981 ft | 470 kts | 195° |
| 2026-05-01 13:52 | -22.05834 | -46.14759 | 27350 ft | 466 kts | 195° |
| 2026-05-01 13:53 | -22.09026 | -46.15562 | 26718 ft | 462 kts | 195° |
| 2026-05-01 13:53 | -22.15233 | -46.17132 | 25494 ft | 455 kts | 195° |
| 2026-05-01 13:53 | -22.18306 | -46.17910 | 24884 ft | 452 kts | 195° |
| 2026-05-01 13:54 | -22.21356 | -46.18682 | 24285 ft | 449 kts | 195° |
| 2026-05-01 13:54 | -22.24390 | -46.19449 | 23675 ft | 447 kts | 195° |
| 2026-05-01 13:54 | -22.27411 | -46.20209 | 23025 ft | 442 kts | 195° |
| 2026-05-01 13:54 | -22.30382 | -46.20957 | 22471 ft | 436 kts | 195° |
| 2026-05-01 13:55 | -22.33351 | -46.21560 | 21927 ft | 432 kts | 190° |
| 2026-05-01 13:55 | -22.36346 | -46.22021 | 21406 ft | 426 kts | 190° |
| 2026-05-01 13:55 | -22.39226 | -46.22464 | 20906 ft | 422 kts | 190° |
| 2026-05-01 13:55 | -22.42155 | -46.22917 | 20385 ft | 418 kts | 190° |
| 2026-05-01 13:56 | -22.45021 | -46.23362 | 19884 ft | 415 kts | 190° |
| 2026-05-01 13:56 | -22.47876 | -46.23807 | 19383 ft | 413 kts | 190° |
| 2026-05-01 13:56 | -22.50714 | -46.24247 | 18887 ft | 411 kts | 190° |
| 2026-05-01 13:56 | -22.53539 | -46.24686 | 18370 ft | 409 kts | 190° |
| 2026-05-01 13:57 | -22.56341 | -46.25122 | 17985 ft | 403 kts | 190° |
| 2026-05-01 13:57 | -22.58161 | -46.25404 | 17891 ft | 396 kts | 190° |
| 2026-05-01 13:57 | -22.61800 | -46.25970 | 17587 ft | 393 kts | 190° |
| 2026-05-01 13:57 | -22.64499 | -46.26389 | 17363 ft | 392 kts | 190° |
| 2026-05-01 13:58 | -22.67194 | -46.26808 | 17135 ft | 390 kts | 190° |
| 2026-05-01 13:58 | -22.69875 | -46.27225 | 16907 ft | 389 kts | 190° |
| 2026-05-01 13:58 | -22.72554 | -46.27643 | 16688 ft | 388 kts | 190° |
| 2026-05-01 13:58 | -22.75226 | -46.28057 | 16465 ft | 387 kts | 190° |
| 2026-05-01 13:59 | -22.77839 | -46.28660 | 16246 ft | 384 kts | 199° |
| 2026-05-01 13:59 | -22.80325 | -46.29783 | 15820 ft | 381 kts | 210° |
| 2026-05-01 13:59 | -22.82613 | -46.31207 | 15338 ft | 378 kts | 212° |
| 2026-05-01 13:59 | -22.84881 | -46.32625 | 14877 ft | 375 kts | 211° |
| 2026-05-01 14:00 | -22.87140 | -46.34028 | 14407 ft | 373 kts | 211° |
| 2026-05-01 14:00 | -22.89393 | -46.35425 | 13947 ft | 372 kts | 211° |
| 2026-05-01 14:00 | -22.91636 | -46.36814 | 13453 ft | 370 kts | 211° |
| 2026-05-01 14:00 | -22.93861 | -46.38191 | 13002 ft | 367 kts | 211° |
| 2026-05-01 14:01 | -22.96075 | -46.39563 | 12548 ft | 365 kts | 211° |
| 2026-05-01 14:01 | -22.98269 | -46.40923 | 12109 ft | 362 kts | 211° |
| 2026-05-01 14:01 | -23.00477 | -46.42291 | 11659 ft | 359 kts | 211° |
| 2026-05-01 14:01 | -23.02633 | -46.43631 | 11220 ft | 356 kts | 211° |
| 2026-05-01 14:02 | -23.04769 | -46.44961 | 10845 ft | 350 kts | 211° |
| 2026-05-01 14:02 | -23.06835 | -46.46246 | 10725 ft | 335 kts | 211° |
| 2026-05-01 14:02 | -23.08822 | -46.47480 | 10612 ft | 322 kts | 211° |
| 2026-05-01 14:02 | -23.10728 | -46.48662 | 10506 ft | 310 kts | 211° |
| 2026-05-01 14:03 | -23.12567 | -46.49804 | 10334 ft | 300 kts | 211° |
| 2026-05-01 14:03 | -23.14334 | -46.50905 | 10203 ft | 293 kts | 211° |
| 2026-05-01 14:03 | -23.16112 | -46.52016 | 10016 ft | 295 kts | 211° |
| 2026-05-01 14:03 | -23.17281 | -46.52749 | 9813 ft | 293 kts | 211° |
| 2026-05-01 14:04 | -23.19638 | -46.54221 | 9412 ft | 291 kts | 211° |
| 2026-05-01 14:04 | -23.20825 | -46.54961 | 9235 ft | 291 kts | 211° |
| 2026-05-01 14:04 | -23.22550 | -46.56105 | 8938 ft | 290 kts | 214° |
| 2026-05-01 14:04 | -23.24244 | -46.57300 | 8635 ft | 290 kts | 214° |
| 2026-05-01 14:05 | -23.25921 | -46.58509 | 8341 ft | 289 kts | 215° |
| 2026-05-01 14:05 | -23.27597 | -46.59722 | 7996 ft | 290 kts | 215° |
| 2026-05-01 14:05 | -23.29281 | -46.60937 | 7634 ft | 290 kts | 214° |
| 2026-05-01 14:05 | -23.30961 | -46.62141 | 7417 ft | 288 kts | 214° |
| 2026-05-01 14:06 | -23.32634 | -46.63339 | 7207 ft | 288 kts | 214° |
| 2026-05-01 14:06 | -23.34305 | -46.64532 | 6996 ft | 287 kts | 214° |
| 2026-05-01 14:06 | -23.35935 | -46.65691 | 6795 ft | 286 kts | 215° |
| 2026-05-01 14:06 | -23.37645 | -46.66904 | 6573 ft | 286 kts | 214° |
| 2026-05-01 14:07 | -23.39293 | -46.68074 | 6352 ft | 280 kts | 214° |
| 2026-05-01 14:07 | -23.41008 | -46.69003 | 6155 ft | 273 kts | 192° |
| 2026-05-01 14:07 | -23.42852 | -46.68909 | 6022 ft | 264 kts | 159° |
| 2026-05-01 14:08 | -23.45232 | -46.66487 | 5671 ft | 235 kts | 122° |
| 2026-05-01 14:08 | -23.46140 | -46.65048 | 5229 ft | 228 kts | 122° |
| 2026-05-01 14:08 | -23.46940 | -46.63603 | 5050 ft | 220 kts | 109° |
| 2026-05-01 14:08 | -23.47260 | -46.62063 | 4906 ft | 202 kts | 89° |
| 2026-05-01 14:09 | -23.47093 | -46.60635 | 4671 ft | 188 kts | 70° |
| 2026-05-01 14:09 | -23.46733 | -46.59314 | 4439 ft | 178 kts | 71° |
| 2026-05-01 14:09 | -23.46397 | -46.58054 | 4218 ft | 165 kts | 71° |
| 2026-05-01 14:09 | -23.46086 | -46.56892 | 4042 ft | 153 kts | 72° |
| 2026-05-01 14:10 | -23.45789 | -46.55790 | 3830 ft | 147 kts | 72° |
| 2026-05-01 14:10 | -23.45510 | -46.54755 | 3642 ft | 145 kts | 73° |
| 2026-05-01 14:10 | -23.45362 | -46.54206 | 3553 ft | 144 kts | 73° |
| 2026-05-01 14:11 | -23.45201 | -46.53664 | 3471 ft | 143 kts | 72° |
| 2026-05-01 14:11 | -23.44661 | -46.51617 | 3073 ft | 143 kts | 73° |
| 2026-05-01 14:11 | -23.44423 | -46.50705 | 2890 ft | 140 kts | 73° |
| 2026-05-01 14:12 | -23.44244 | -46.49969 | 2769 ft | 137 kts | 68° |
| 2026-05-01 14:12 | -23.43989 | -46.49087 | 2631 ft | 135 kts | 72° |
| 2026-05-01 14:12 | -23.43801 | -46.48160 | 2708 ft | 134 kts | 71° |
| 2026-05-01 14:12 | -23.43714 | -46.47897 | 2810 ft | 134 kts | 65° |
| 2026-05-01 14:13 | -23.43469 | -46.47293 | 3097 ft | 135 kts | 66° |
| 2026-05-01 14:13 | -23.43251 | -46.46638 | 3252 ft | 146 kts | 71° |
| 2026-05-01 14:13 | -23.42876 | -46.45161 | 3408 ft | 153 kts | 84° |
| 2026-05-01 14:13 | -23.42868 | -46.44012 | 3752 ft | 156 kts | 104° |
| 2026-05-01 14:14 | -23.43354 | -46.42916 | 4147 ft | 168 kts | 120° |
| 2026-05-01 14:14 | -23.44028 | -46.41807 | 4525 ft | 182 kts | 122° |
| 2026-05-01 14:14 | -23.44674 | -46.40589 | 4900 ft | 190 kts | 104° |
| 2026-05-01 14:14 | -23.44634 | -46.39141 | 5283 ft | 198 kts | 72° |
| 2026-05-01 14:15 | -23.43987 | -46.37813 | 5634 ft | 205 kts | 43° |
| 2026-05-01 14:15 | -23.42673 | -46.37079 | 5868 ft | 229 kts | 8° |
| 2026-05-01 14:15 | -23.41011 | -46.37232 | 5985 ft | 251 kts | 343° |
| 2026-05-01 14:15 | -23.39346 | -46.37890 | 6007 ft | 256 kts | 338° |
| 2026-05-01 14:16 | -23.37746 | -46.38721 | 6007 ft | 257 kts | 324° |
| 2026-05-01 14:16 | -23.36542 | -46.40142 | 6005 ft | 258 kts | 300° |
| 2026-05-01 14:16 | -23.36022 | -46.42043 | 6012 ft | 263 kts | 274° |
| 2026-05-01 14:16 | -23.36290 | -46.44020 | 6012 ft | 266 kts | 257° |
| 2026-05-01 14:17 | -23.36766 | -46.45967 | 6007 ft | 267 kts | 257° |
| 2026-05-01 14:17 | -23.37134 | -46.47939 | 6003 ft | 265 kts | 271° |
| 2026-05-01 14:17 | -23.36854 | -46.49894 | 6014 ft | 262 kts | 286° |
| 2026-05-01 14:17 | -23.36376 | -46.51806 | 6009 ft | 262 kts | 288° |
| 2026-05-01 14:18 | -23.35878 | -46.53720 | 6012 ft | 263 kts | 287° |
| 2026-05-01 14:18 | -23.35370 | -46.55635 | 6004 ft | 263 kts | 288° |
| 2026-05-01 14:18 | -23.34864 | -46.57553 | 6003 ft | 263 kts | 288° |
| 2026-05-01 14:18 | -23.34531 | -46.58819 | 6000 ft | 264 kts | 288° |
| 2026-05-01 14:19 | -23.33858 | -46.61389 | 5994 ft | 264 kts | 288° |
| 2026-05-01 14:19 | -23.33387 | -46.63303 | 5979 ft | 256 kts | 281° |
| 2026-05-01 14:19 | -23.33422 | -46.65179 | 5981 ft | 244 kts | 258° |
| 2026-05-01 14:19 | -23.34108 | -46.66836 | 5988 ft | 242 kts | 234° |
| 2026-05-01 14:20 | -23.35344 | -46.68068 | 5991 ft | 244 kts | 210° |
| 2026-05-01 14:20 | -23.38489 | -46.69200 | 6003 ft | 230 kts | 196° |
| 2026-05-01 14:20 | -23.40036 | -46.69628 | 6001 ft | 229 kts | 188° |
| 2026-05-01 14:21 | -23.41623 | -46.69583 | 6012 ft | 229 kts | 167° |
| 2026-05-01 14:21 | -23.43107 | -46.68973 | 5945 ft | 230 kts | 148° |
| 2026-05-01 14:21 | -23.44321 | -46.67866 | 5652 ft | 227 kts | 127° |
| 2026-05-01 14:22 | -23.46074 | -46.65084 | 5187 ft | 220 kts | 122° |
| 2026-05-01 14:22 | -23.46885 | -46.63681 | 5052 ft | 217 kts | 113° |
| 2026-05-01 14:22 | -23.47251 | -46.62159 | 4916 ft | 194 kts | 91° |
| 2026-05-01 14:22 | -23.47129 | -46.60772 | 4691 ft | 177 kts | 71° |
| 2026-05-01 14:23 | -23.46795 | -46.59531 | 4479 ft | 167 kts | 71° |
| 2026-05-01 14:23 | -23.46475 | -46.58339 | 4295 ft | 156 kts | 72° |
| 2026-05-01 14:23 | -23.46180 | -46.57241 | 4098 ft | 148 kts | 71° |
| 2026-05-01 14:23 | -23.45893 | -46.56174 | 3900 ft | 146 kts | 72° |
| 2026-05-01 14:24 | -23.45608 | -46.55117 | 3716 ft | 145 kts | 72° |
| 2026-05-01 14:24 | -23.45325 | -46.54069 | 3545 ft | 144 kts | 72° |
| 2026-05-01 14:24 | -23.45044 | -46.53025 | 3341 ft | 144 kts | 72° |
| 2026-05-01 14:24 | -23.44764 | -46.51988 | 3139 ft | 141 kts | 72° |
| 2026-05-01 14:25 | -23.44489 | -46.50960 | 2942 ft | 140 kts | 73° |
| 2026-05-01 14:25 | -23.44224 | -46.49938 | 2772 ft | 140 kts | 71° |
| 2026-05-01 14:25 | -23.43946 | -46.48925 | 2525 ft | 139 kts | 71° |
| 2026-05-01 14:25 | -23.43676 | -46.47960 | 2465 ft | 119 kts | 72° |
| 2026-05-01 14:26 | -23.43518 | -46.47372 | 2468 ft | 48 kts | 73° |
| 2026-05-01 14:26 | -23.43275 | -46.46832 | 2466 ft | 31 kts | 44° |
| 2026-05-01 14:26 | -23.43169 | -46.46725 | 2472 ft | 20 kts | 38° |
| 2026-05-01 14:27 | -23.43038 | -46.46733 | 2468 ft | 21 kts | 344° |
| 2026-05-01 14:27 | -23.42891 | -46.46779 | 2469 ft | 22 kts | 342° |
| 2026-05-01 14:27 | -23.42775 | -46.46840 | 2463 ft | 16 kts | 294° |
| 2026-05-01 14:28 | -23.42824 | -46.47050 | 2469 ft | 16 kts | 254° |
| 2026-05-01 14:28 | -23.42857 | -46.47175 | 2466 ft | 18 kts | 253° |
| 2026-05-01 14:28 | -23.42894 | -46.47314 | 2466 ft | 21 kts | 254° |
| 2026-05-01 14:28 | -23.42933 | -46.47463 | 2465 ft | 20 kts | 253° |
| 2026-05-01 14:29 | -23.42976 | -46.47616 | 2465 ft | 22 kts | 252° |
| 2026-05-01 14:29 | -23.43021 | -46.47780 | 2468 ft | 23 kts | 253° |
| 2026-05-01 14:30 | -23.43163 | -46.48305 | 2468 ft | 21 kts | 254° |
| 2026-05-01 14:30 | -23.43141 | -46.48412 | 2469 ft | 16 kts | 332° |
| 2026-05-01 14:30 | -23.43029 | -46.48447 | 2465 ft | 17 kts | 355° |
| 2026-05-01 14:31 | -23.42784 | -46.48431 | 2468 ft | 17 kts | 349° |
| 2026-05-01 14:31 | -23.42732 | -46.48421 | 2465 ft | 4 kts | 81° |
| 2026-05-01 14:31 | -23.42728 | -46.48398 | 2465 ft | 5 kts | 84° |
| 2026-05-01 14:31 | -23.42727 | -46.48383 | 2465 ft | 1 kts | 84° |
| 2026-05-01 14:32 | -23.42727 | -46.48381 | 2465 ft | 0 kts | 84° |